Sampogracht — PHDL — position and weather

sailwx.info

Track history (hours):
 
Tides and Currents Weather Stations Pressure Air Temp Water Temp Dewpoint Dewpoint Depression Visibility Wind Speed Wind Dir Waves Ship Positions

Sampogracht

Last reported at 2019-May-22 00:15 UTC. Time now 2019-May-24 01:28 UTC.
Position N 60°24' E 019°02'.

Length 173 m; beam 26 m.

Type: Cargo ship. MMSI: 246396000.

Date/timePositionNaut miles runAvg speedWind from/ knotsBaromVisibWave heightAir tempDewpointWater temp
2019-May-22 00:15N 60°24' E 019°02'416.5
2019-May-22 00:00N 60°20' E 019°01'816.4
2019-May-21 23:30N 60°12' E 019°05'816.9
2019-May-21 23:00N 60°06' E 019°16'917.1
2019-May-21 22:30N 59°59' E 019°27'917.0
2019-May-21 22:00N 59°52' E 019°38'917.3
2019-May-21 21:29N 59°45' E 019°49'3713.7
2019-May-21 18:47N 59°08' E 019°44'516.5
2019-May-21 18:30N 59°04' E 019°39'916.7
2019-May-21 17:59N 58°57' E 019°30'14816.9
2019-May-21 09:14N 56°47' E 017°17'516.8
2019-May-21 08:56N 56°42' E 017°14'1016.8
2019-May-21 08:21N 56°33' E 017°07'616.7
2019-May-21 07:58N 56°27' E 017°04'816.7
2019-May-21 07:30N 56°20' E 016°60'816.6
2019-May-21 07:00N 56°12' E 016°55'816.5
2019-May-21 06:30N 56°04' E 016°49'816.6
2019-May-21 06:00N 56°00' E 016°36'816.5
2019-May-21 05:31N 55°56' E 016°23'816.2
2019-May-21 05:00N 55°52' E 016°10'816.1
2019-May-21 04:30N 55°48' E 015°58'816.0
2019-May-21 04:00N 55°44' E 015°46'816.2
2019-May-21 03:30N 55°40' E 015°34'816.6
2019-May-21 03:00N 55°36' E 015°21'816.3
2019-May-21 02:30N 55°32' E 015°08'816.8
2019-May-21 02:00N 55°27' E 014°55'816.7
2019-May-21 01:30N 55°24' E 014°42'916.4
2019-May-21 00:57N 55°17' E 014°31'916.5
2019-May-21 00:24N 55°10' E 014°21'816.5
2019-May-20 23:55N 55°04' E 014°12'4816.3
2019-May-20 21:00N 54°47' E 012°55'816.1
2019-May-20 20:30N 54°45' E 012°42'2415.5
2019-May-20 18:57N 54°27' E 012°14'714.9
2019-May-20 18:28N 54°24' E 012°02'716.1
2019-May-20 18:00N 54°24' E 011°49'816.9
2019-May-20 17:30N 54°28' E 011°36'917.5
2019-May-20 17:00N 54°32' E 011°23'816.6
2019-May-20 16:30N 54°35' E 011°10'816.8
2019-May-20 16:00N 54°40' E 010°57'815.3
2019-May-20 15:30N 54°47' E 010°52'917.2
2019-May-20 15:00N 54°55' E 010°54'816.6
2019-May-20 14:30N 55°02' E 011°01'816.8
2019-May-20 14:00N 55°10' E 011°03'11315.4
2019-May-20 06:42N 57°01' E 011°42'317.3
2019-May-20 06:30N 57°04' E 011°39'917.5
2019-May-20 06:00N 57°13' E 011°34'917.6
2019-May-20 05:30N 57°21' E 011°29'917.0
2019-May-20 05:00N 57°29' E 011°23'917.1
2019-May-20 04:30N 57°34' E 011°10'917.2
2019-May-20 04:00N 57°40' E 010°59'816.8
2019-May-20 03:30N 57°46' E 010°47'815.7
2019-May-20 03:00N 57°48' E 010°33'816.6
2019-May-20 02:30N 57°48' E 010°17'816.4
2019-May-20 02:00N 57°47' E 010°02'816.0
2019-May-20 01:30N 57°45' E 009°48'815.7
2019-May-20 01:00N 57°42' E 009°34'815.4
2019-May-20 00:30N 57°40' E 009°20'816.5
2019-May-20 00:00N 57°37' E 009°05'815.8
2019-May-19 23:30N 57°32' E 008°53'816.5
2019-May-19 23:00N 57°27' E 008°43'916.7
2019-May-19 22:29N 57°21' E 008°31'816.6
2019-May-19 22:01N 57°15' E 008°20'816.4
2019-May-19 21:30N 57°09' E 008°11'816.7
2019-May-19 21:00N 57°01' E 008°04'816.7
2019-May-19 20:30N 56°53' E 007°58'816.6
2019-May-19 20:00N 56°46' E 007°52'916.6
2019-May-19 19:28N 56°38' E 007°45'18915.1
2019-May-19 06:59N 53°33' E 006°42'613.3
2019-May-19 06:30N 53°28' E 006°50'1 2.4
2019-May-19 05:58N 53°27' E 006°50'0 0.0
2019-May-19 05:25N 53°27' E 006°50'0 0.0
2019-May-19 04:58N 53°27' E 006°50'0 0.0
2019-May-19 04:22N 53°27' E 006°50'0 0.0
2019-May-19 03:58N 53°27' E 006°50'0 0.0
2019-May-19 03:25N 53°27' E 006°50'0 0.0
2019-May-19 02:55N 53°27' E 006°50'0 0.0
2019-May-19 02:25N 53°27' E 006°50'0 0.0
2019-May-19 01:55N 53°27' E 006°50'0 0.0
2019-May-19 01:28N 53°27' E 006°50'0 0.0
2019-May-19 00:58N 53°27' E 006°50'0 0.0
2019-May-19 00:22N 53°27' E 006°50'0 0.0
2019-May-18 23:58N 53°27' E 006°50'0 0.0
2019-May-18 23:28N 53°27' E 006°50'0 0.0
2019-May-18 22:55N 53°27' E 006°50'0 0.0
2019-May-18 22:28N 53°27' E 006°50'0 0.0
2019-May-18 21:58N 53°27' E 006°50'0 0.0
2019-May-18 21:28N 53°27' E 006°50'0 0.0
2019-May-18 20:58N 53°27' E 006°50'0 0.0
2019-May-18 20:28N 53°27' E 006°50'0 0.0
2019-May-18 19:58N 53°27' E 006°50'0 0.0
2019-May-18 19:28N 53°27' E 006°50'0 0.0
2019-May-18 18:58N 53°27' E 006°50'0 0.0
2019-May-18 18:25N 53°27' E 006°50'0 0.0
2019-May-18 17:58N 53°27' E 006°50'0 0.0
2019-May-18 17:28N 53°27' E 006°50'0 0.0
2019-May-18 16:58N 53°27' E 006°50'0 0.0
2019-May-18 16:28N 53°27' E 006°50'0 0.0
2019-May-18 15:58N 53°27' E 006°50'0 0.0
2019-May-18 15:28N 53°27' E 006°50'0 0.0
2019-May-18 14:58N 53°27' E 006°50'0 0.0
2019-May-18 14:28N 53°27' E 006°50'0 0.0
2019-May-18 13:58N 53°27' E 006°50'0 0.0
2019-May-18 13:19N 53°27' E 006°50'0 0.0
2019-May-18 12:58N 53°27' E 006°50'0 0.0
2019-May-18 12:28N 53°27' E 006°50'0 0.0
2019-May-18 11:55N 53°27' E 006°50'0 0.0
2019-May-18 11:31N 53°27' E 006°50'0 0.0
2019-May-18 11:01N 53°27' E 006°50'0 0.0
2019-May-18 10:30N 53°27' E 006°50'0 0.0
2019-May-18 09:57N 53°27' E 006°50'0 0.0
2019-May-18 09:30N 53°27' E 006°50'0 0.0
2019-May-18 08:57N 53°27' E 006°50'0 0.0
2019-May-18 08:30N 53°27' E 006°50'0 0.0
2019-May-18 08:00N 53°27' E 006°50'0 0.0
2019-May-18 07:30N 53°27' E 006°50'0 0.0
2019-May-18 07:00N 53°27' E 006°50'0 0.0
2019-May-18 06:30N 53°27' E 006°50'0 0.0
2019-May-18 05:57N 53°27' E 006°50'0 0.0
2019-May-18 05:30N 53°27' E 006°50'0 0.0
2019-May-18 04:57N 53°27' E 006°50'0 0.0
2019-May-18 04:30N 53°27' E 006°50'0 0.3
2019-May-18 04:00N 53°27' E 006°50'2 4.4
2019-May-18 03:30N 53°29' E 006°49'5 9.1
2019-May-18 03:00N 53°32' E 006°44'5 9.3
2019-May-18 02:30N 53°35' E 006°37'2911.5
2019-May-17 23:58N 53°38' E 005°48'1215.8
2019-May-17 23:13N 53°34' E 005°29'315.6
2019-May-17 23:00N 53°33' E 005°24'1716.0
2019-May-17 21:57N 53°27' E 004°57'2015.3
2019-May-17 20:37N 53°13' E 004°34'215.8
2019-May-17 20:30N 53°11' E 004°32'815.8
2019-May-17 20:00N 53°04' E 004°25'815.7
2019-May-17 19:30N 52°58' E 004°19'815.8
2019-May-17 19:00N 52°50' E 004°14'815.9
2019-May-17 18:30N 52°44' E 004°06'816.2
2019-May-17 17:59N 52°38' E 003°56'816.2
2019-May-17 17:30N 52°33' E 003°47'816.0
2019-May-17 17:00N 52°27' E 003°37'816.4
2019-May-17 16:30N 52°21' E 003°29'816.7
2019-May-17 16:00N 52°14' E 003°20'816.8
2019-May-17 15:30N 52°09' E 003°10'917.3
2019-May-17 14:59N 52°02' E 002°59'917.6
2019-May-17 14:27N 51°55' E 002°49'2218.4
2019-May-17 13:16N 51°39' E 002°27'518.5
2019-May-17 13:00N 51°35' E 002°22'918.6
2019-May-17 12:30N 51°28' E 002°12'918.0
2019-May-17 12:00N 51°20' E 002°06'917.4
2019-May-17 11:30N 51°12' E 001°59'1019.1
2019-May-17 11:00N 51°07' E 001°46'1019.8
2019-May-17 10:30N 51°00' E 001°35'1019.5
2019-May-17 10:01N 50°52' E 001°26'6617.5
2019-May-17 06:14N 50°19' W 000°04'418.4
2019-May-17 06:00N 50°18' W 000°10'1118.5
2019-May-17 05:25N 50°14' W 000°27'818.2
2019-May-17 05:00N 50°12' W 000°38'917.9
2019-May-17 04:30N 50°10' W 000°52'917.3
2019-May-17 04:00N 50°08' W 001°05'816.6
2019-May-17 03:30N 50°06' W 001°17'815.8
2019-May-17 02:59N 50°04' W 001°30'715.0
2019-May-17 02:30N 50°02' W 001°40'914.1
2019-May-17 01:51N 49°60' W 001°54'1013.2
2019-May-17 01:06N 49°57' W 002°09'1213.3
2019-May-17 00:11N 49°54' W 002°28'213.6
2019-May-17 00:00N 49°54' W 002°31'813.8
2019-May-16 23:24N 49°51' W 002°44'614.1
2019-May-16 23:00N 49°50' W 002°52'714.6
2019-May-16 22:30N 49°46' W 003°01'714.9
2019-May-16 22:00N 49°42' W 003°11'715.0
2019-May-16 21:30N 49°38' W 003°21'815.0
2019-May-16 21:00N 49°35' W 003°31'815.1
2019-May-16 20:30N 49°31' W 003°41'815.1
2019-May-16 20:01N 49°27' W 003°51'815.4
2019-May-16 19:30N 49°23' W 004°02'1115.7
2019-May-16 18:49N 49°18' W 004°16'3115.9
2019-May-16 16:51N 49°02' W 004°57'616.2
2019-May-16 16:30N 48°59' W 005°05'917.0
2019-May-16 16:00N 48°55' W 005°16'816.5
2019-May-16 15:30N 48°51' W 005°27'816.9
2019-May-16 15:00N 48°46' W 005°37'917.6
2019-May-16 14:30N 48°38' W 005°44'917.6
2019-May-16 14:00N 48°31' W 005°50'917.5
2019-May-16 13:30N 48°24' W 005°59'917.4
2019-May-16 13:00N 48°18' W 006°08'31016.3
2019-May-15 18:00N 44°54' W 011°48'9415.7 330 / 241017.2 5.4 14.912.715.3
2019-May-15 12:00N 43°54' W 013°30'11316.2 340 / 121022.110.8 14.110.415.8
2019-May-15 05:03N 42°42' W 015°29'115.8
2019-May-15 04:58N 42°41' W 015°31'816.2
2019-May-15 04:30N 42°37' W 015°39'815.9
2019-May-15 04:00N 42°32' W 015°47'1815.7
2019-May-15 02:52N 42°21' W 016°06'616.0
2019-May-15 02:30N 42°17' W 016°12'4317.0
2019-May-15 00:00N 41°48' W 016°54'9816.3 1022.010.8 16.814.017.1
2019-May-14 18:00N 40°42' W 018°30'29816.8 280 / 81020.110.8 19.014.917.1
2019-May-14 00:14N 37°33' W 023°27'417.4
2019-May-13 23:59N 37°30' W 023°31'817.1
2019-May-13 23:30N 37°25' W 023°39'917.3
2019-May-13 23:00N 37°19' W 023°47'917.1
2019-May-13 22:31N 37°14' W 023°55'917.2
2019-May-13 22:01N 37°08' W 024°03'917.1
2019-May-13 21:30N 37°03' W 024°12'817.0
2019-May-13 21:01N 36°57' W 024°20'917.2
2019-May-13 20:31N 36°51' W 024°28'917.2
2019-May-13 20:01N 36°46' W 024°36'816.9
2019-May-13 19:31N 36°40' W 024°44'917.1
2019-May-13 19:00N 36°35' W 024°52'917.1
2019-May-13 18:30N 36°29' W 025°00'917.1
2019-May-13 18:01N 36°24' W 025°08'917.1
2019-May-13 17:31N 36°18' W 025°16'917.0
2019-May-13 17:01N 36°13' W 025°24'917.0
2019-May-13 16:31N 36°07' W 025°32'816.8
2019-May-13 16:00N 36°02' W 025°40'917.1
2019-May-13 15:30N 35°56' W 025°48'25716.6
2019-May-13 00:00N 33°00' W 029°36'19516.3 320 / 61022.210.8 18.014.621.5
2019-May-12 12:00N 31°12' W 032°48'   320 / 171019.110.8 21.516.622.2
Track history (hours):
 
Tides and Currents Weather Stations Pressure Air Temp Water Temp Dewpoint Dewpoint Depression Visibility Wind Speed Wind Dir Waves Ship Positions

Sampogracht

Last reported at 2019-May-22 00:15 UTC. Time now 2019-May-24 01:28 UTC.
Position N 60°24' E 019°02'.

Length 173 m; beam 26 m.

Type: Cargo ship. MMSI: 246396000.

Date/timePositionNaut miles runAvg speedWind from/ knotsBaromVisibWave heightAir tempDewpointWater temp
2019-May-22 00:15N 60°24' E 019°02'416.5
2019-May-22 00:00N 60°20' E 019°01'816.4
2019-May-21 23:30N 60°12' E 019°05'816.9
2019-May-21 23:00N 60°06' E 019°16'917.1
2019-May-21 22:30N 59°59' E 019°27'917.0
2019-May-21 22:00N 59°52' E 019°38'917.3
2019-May-21 21:29N 59°45' E 019°49'3713.7
2019-May-21 18:47N 59°08' E 019°44'516.5
2019-May-21 18:30N 59°04' E 019°39'916.7
2019-May-21 17:59N 58°57' E 019°30'14816.9
2019-May-21 09:14N 56°47' E 017°17'516.8
2019-May-21 08:56N 56°42' E 017°14'1016.8
2019-May-21 08:21N 56°33' E 017°07'616.7
2019-May-21 07:58N 56°27' E 017°04'816.7
2019-May-21 07:30N 56°20' E 016°60'816.6
2019-May-21 07:00N 56°12' E 016°55'816.5
2019-May-21 06:30N 56°04' E 016°49'816.6
2019-May-21 06:00N 56°00' E 016°36'816.5
2019-May-21 05:31N 55°56' E 016°23'816.2
2019-May-21 05:00N 55°52' E 016°10'816.1
2019-May-21 04:30N 55°48' E 015°58'816.0
2019-May-21 04:00N 55°44' E 015°46'816.2
2019-May-21 03:30N 55°40' E 015°34'816.6
2019-May-21 03:00N 55°36' E 015°21'816.3
2019-May-21 02:30N 55°32' E 015°08'816.8
2019-May-21 02:00N 55°27' E 014°55'816.7
2019-May-21 01:30N 55°24' E 014°42'916.4
2019-May-21 00:57N 55°17' E 014°31'916.5
2019-May-21 00:24N 55°10' E 014°21'816.5
2019-May-20 23:55N 55°04' E 014°12'4816.3
2019-May-20 21:00N 54°47' E 012°55'816.1
2019-May-20 20:30N 54°45' E 012°42'2415.5
2019-May-20 18:57N 54°27' E 012°14'714.9
2019-May-20 18:28N 54°24' E 012°02'716.1
2019-May-20 18:00N 54°24' E 011°49'816.9
2019-May-20 17:30N 54°28' E 011°36'917.5
2019-May-20 17:00N 54°32' E 011°23'816.6
2019-May-20 16:30N 54°35' E 011°10'816.8
2019-May-20 16:00N 54°40' E 010°57'815.3
2019-May-20 15:30N 54°47' E 010°52'917.2
2019-May-20 15:00N 54°55' E 010°54'816.6
2019-May-20 14:30N 55°02' E 011°01'816.8
2019-May-20 14:00N 55°10' E 011°03'11315.4
2019-May-20 06:42N 57°01' E 011°42'317.3
2019-May-20 06:30N 57°04' E 011°39'917.5
2019-May-20 06:00N 57°13' E 011°34'917.6
2019-May-20 05:30N 57°21' E 011°29'917.0
2019-May-20 05:00N 57°29' E 011°23'917.1
2019-May-20 04:30N 57°34' E 011°10'917.2
2019-May-20 04:00N 57°40' E 010°59'816.8
2019-May-20 03:30N 57°46' E 010°47'815.7
2019-May-20 03:00N 57°48' E 010°33'816.6
2019-May-20 02:30N 57°48' E 010°17'816.4
2019-May-20 02:00N 57°47' E 010°02'816.0
2019-May-20 01:30N 57°45' E 009°48'815.7
2019-May-20 01:00N 57°42' E 009°34'815.4
2019-May-20 00:30N 57°40' E 009°20'816.5
2019-May-20 00:00N 57°37' E 009°05'815.8
2019-May-19 23:30N 57°32' E 008°53'816.5
2019-May-19 23:00N 57°27' E 008°43'916.7
2019-May-19 22:29N 57°21' E 008°31'816.6
2019-May-19 22:01N 57°15' E 008°20'816.4
2019-May-19 21:30N 57°09' E 008°11'816.7
2019-May-19 21:00N 57°01' E 008°04'816.7
2019-May-19 20:30N 56°53' E 007°58'816.6
2019-May-19 20:00N 56°46' E 007°52'916.6
2019-May-19 19:28N 56°38' E 007°45'18915.1
2019-May-19 06:59N 53°33' E 006°42'613.3
2019-May-19 06:30N 53°28' E 006°50'1 2.4
2019-May-19 05:58N 53°27' E 006°50'0 0.0
2019-May-19 05:25N 53°27' E 006°50'0 0.0
2019-May-19 04:58N 53°27' E 006°50'0 0.0
2019-May-19 04:22N 53°27' E 006°50'0 0.0
2019-May-19 03:58N 53°27' E 006°50'0 0.0
2019-May-19 03:25N 53°27' E 006°50'0 0.0
2019-May-19 02:55N 53°27' E 006°50'0 0.0
2019-May-19 02:25N 53°27' E 006°50'0 0.0
2019-May-19 01:55N 53°27' E 006°50'0 0.0
2019-May-19 01:28N 53°27' E 006°50'0 0.0
2019-May-19 00:58N 53°27' E 006°50'0 0.0
2019-May-19 00:22N 53°27' E 006°50'0 0.0
2019-May-18 23:58N 53°27' E 006°50'0 0.0
2019-May-18 23:28N 53°27' E 006°50'0 0.0
2019-May-18 22:55N 53°27' E 006°50'0 0.0
2019-May-18 22:28N 53°27' E 006°50'0 0.0
2019-May-18 21:58N 53°27' E 006°50'0 0.0
2019-May-18 21:28N 53°27' E 006°50'0 0.0
2019-May-18 20:58N 53°27' E 006°50'0 0.0
2019-May-18 20:28N 53°27' E 006°50'0 0.0
2019-May-18 19:58N 53°27' E 006°50'0 0.0
2019-May-18 19:28N 53°27' E 006°50'0 0.0
2019-May-18 18:58N 53°27' E 006°50'0 0.0
2019-May-18 18:25N 53°27' E 006°50'0 0.0
2019-May-18 17:58N 53°27' E 006°50'0 0.0
2019-May-18 17:28N 53°27' E 006°50'0 0.0
2019-May-18 16:58N 53°27' E 006°50'0 0.0
2019-May-18 16:28N 53°27' E 006°50'0 0.0
2019-May-18 15:58N 53°27' E 006°50'0 0.0
2019-May-18 15:28N 53°27' E 006°50'0 0.0
2019-May-18 14:58N 53°27' E 006°50'0 0.0
2019-May-18 14:28N 53°27' E 006°50'0 0.0
2019-May-18 13:58N 53°27' E 006°50'0 0.0
2019-May-18 13:19N 53°27' E 006°50'0 0.0
2019-May-18 12:58N 53°27' E 006°50'0 0.0
2019-May-18 12:28N 53°27' E 006°50'0 0.0
2019-May-18 11:55N 53°27' E 006°50'0 0.0
2019-May-18 11:31N 53°27' E 006°50'0 0.0
2019-May-18 11:01N 53°27' E 006°50'0 0.0
2019-May-18 10:30N 53°27' E 006°50'0 0.0
2019-May-18 09:57N 53°27' E 006°50'0 0.0
2019-May-18 09:30N 53°27' E 006°50'0 0.0
2019-May-18 08:57N 53°27' E 006°50'0 0.0
2019-May-18 08:30N 53°27' E 006°50'0 0.0
2019-May-18 08:00N 53°27' E 006°50'0 0.0
2019-May-18 07:30N 53°27' E 006°50'0 0.0
2019-May-18 07:00N 53°27' E 006°50'0 0.0
2019-May-18 06:30N 53°27' E 006°50'0 0.0
2019-May-18 05:57N 53°27' E 006°50'0 0.0
2019-May-18 05:30N 53°27' E 006°50'0 0.0
2019-May-18 04:57N 53°27' E 006°50'0 0.0
2019-May-18 04:30N 53°27' E 006°50'0 0.3
2019-May-18 04:00N 53°27' E 006°50'2 4.4
2019-May-18 03:30N 53°29' E 006°49'5 9.1
2019-May-18 03:00N 53°32' E 006°44'5 9.3
2019-May-18 02:30N 53°35' E 006°37'2911.5
2019-May-17 23:58N 53°38' E 005°48'1215.8
2019-May-17 23:13N 53°34' E 005°29'315.6
2019-May-17 23:00N 53°33' E 005°24'1716.0
2019-May-17 21:57N 53°27' E 004°57'2015.3
2019-May-17 20:37N 53°13' E 004°34'215.8
2019-May-17 20:30N 53°11' E 004°32'815.8
2019-May-17 20:00N 53°04' E 004°25'815.7
2019-May-17 19:30N 52°58' E 004°19'815.8
2019-May-17 19:00N 52°50' E 004°14'815.9
2019-May-17 18:30N 52°44' E 004°06'816.2
2019-May-17 17:59N 52°38' E 003°56'816.2
2019-May-17 17:30N 52°33' E 003°47'816.0
2019-May-17 17:00N 52°27' E 003°37'816.4
2019-May-17 16:30N 52°21' E 003°29'816.7
2019-May-17 16:00N 52°14' E 003°20'816.8
2019-May-17 15:30N 52°09' E 003°10'917.3
2019-May-17 14:59N 52°02' E 002°59'917.6
2019-May-17 14:27N 51°55' E 002°49'2218.4
2019-May-17 13:16N 51°39' E 002°27'518.5
2019-May-17 13:00N 51°35' E 002°22'918.6
2019-May-17 12:30N 51°28' E 002°12'918.0
2019-May-17 12:00N 51°20' E 002°06'917.4
2019-May-17 11:30N 51°12' E 001°59'1019.1
2019-May-17 11:00N 51°07' E 001°46'1019.8
2019-May-17 10:30N 51°00' E 001°35'1019.5
2019-May-17 10:01N 50°52' E 001°26'6617.5
2019-May-17 06:14N 50°19' W 000°04'418.4
2019-May-17 06:00N 50°18' W 000°10'1118.5
2019-May-17 05:25N 50°14' W 000°27'818.2
2019-May-17 05:00N 50°12' W 000°38'917.9
2019-May-17 04:30N 50°10' W 000°52'917.3
2019-May-17 04:00N 50°08' W 001°05'816.6
2019-May-17 03:30N 50°06' W 001°17'815.8
2019-May-17 02:59N 50°04' W 001°30'715.0
2019-May-17 02:30N 50°02' W 001°40'914.1
2019-May-17 01:51N 49°60' W 001°54'1013.2
2019-May-17 01:06N 49°57' W 002°09'1213.3
2019-May-17 00:11N 49°54' W 002°28'213.6
2019-May-17 00:00N 49°54' W 002°31'813.8
2019-May-16 23:24N 49°51' W 002°44'614.1
2019-May-16 23:00N 49°50' W 002°52'714.6
2019-May-16 22:30N 49°46' W 003°01'714.9
2019-May-16 22:00N 49°42' W 003°11'715.0
2019-May-16 21:30N 49°38' W 003°21'815.0
2019-May-16 21:00N 49°35' W 003°31'815.1
2019-May-16 20:30N 49°31' W 003°41'815.1
2019-May-16 20:01N 49°27' W 003°51'815.4
2019-May-16 19:30N 49°23' W 004°02'1115.7
2019-May-16 18:49N 49°18' W 004°16'3115.9
2019-May-16 16:51N 49°02' W 004°57'616.2
2019-May-16 16:30N 48°59' W 005°05'917.0
2019-May-16 16:00N 48°55' W 005°16'816.5
2019-May-16 15:30N 48°51' W 005°27'816.9
2019-May-16 15:00N 48°46' W 005°37'917.6
2019-May-16 14:30N 48°38' W 005°44'917.6
2019-May-16 14:00N 48°31' W 005°50'917.5
2019-May-16 13:30N 48°24' W 005°59'917.4
2019-May-16 13:00N 48°18' W 006°08'31016.3
2019-May-15 18:00N 44°54' W 011°48'9415.7 330 / 241017.2 5.4 14.912.715.3
2019-May-15 12:00N 43°54' W 013°30'11316.2 340 / 121022.110.8 14.110.415.8
2019-May-15 05:03N 42°42' W 015°29'115.8
2019-May-15 04:58N 42°41' W 015°31'816.2
2019-May-15 04:30N 42°37' W 015°39'815.9
2019-May-15 04:00N 42°32' W 015°47'1815.7
2019-May-15 02:52N 42°21' W 016°06'616.0
2019-May-15 02:30N 42°17' W 016°12'4317.0
2019-May-15 00:00N 41°48' W 016°54'9816.3 1022.010.8 16.814.017.1
2019-May-14 18:00N 40°42' W 018°30'29816.8 280 / 81020.110.8 19.014.917.1
2019-May-14 00:14N 37°33' W 023°27'417.4
2019-May-13 23:59N 37°30' W 023°31'817.1
2019-May-13 23:30N 37°25' W 023°39'917.3
2019-May-13 23:00N 37°19' W 023°47'917.1
2019-May-13 22:31N 37°14' W 023°55'917.2
2019-May-13 22:01N 37°08' W 024°03'917.1
2019-May-13 21:30N 37°03' W 024°12'817.0
2019-May-13 21:01N 36°57' W 024°20'917.2
2019-May-13 20:31N 36°51' W 024°28'917.2
2019-May-13 20:01N 36°46' W 024°36'816.9
2019-May-13 19:31N 36°40' W 024°44'917.1
2019-May-13 19:00N 36°35' W 024°52'917.1
2019-May-13 18:30N 36°29' W 025°00'917.1
2019-May-13 18:01N 36°24' W 025°08'917.1
2019-May-13 17:31N 36°18' W 025°16'917.0
2019-May-13 17:01N 36°13' W 025°24'917.0
2019-May-13 16:31N 36°07' W 025°32'816.8
2019-May-13 16:00N 36°02' W 025°40'917.1
2019-May-13 15:30N 35°56' W 025°48'25716.6
2019-May-13 00:00N 33°00' W 029°36'19516.3 320 / 61022.210.8 18.014.621.5
2019-May-12 12:00N 31°12' W 032°48'   320 / 171019.110.8 21.516.622.2

Dump ship's entire track history